sensor_id;sensor_type;location;lat;lon;timestamp;P1;durP1;ratioP1;P2;durP2;ratioP2
15936;SDS011;9163;48.818;8.976;2022-08-19T00:01:32;17.63;;;14.77;;
15936;SDS011;9163;48.818;8.976;2022-08-19T00:04:03;17.77;;;14.30;;
15936;SDS011;9163;48.818;8.976;2022-08-19T00:06:33;18.07;;;14.57;;
15936;SDS011;9163;48.818;8.976;2022-08-19T00:09:03;17.60;;;14.13;;
15936;SDS011;9163;48.818;8.976;2022-08-19T00:11:32;18.77;;;14.87;;
15936;SDS011;9163;48.818;8.976;2022-08-19T00:14:02;16.83;;;13.43;;
15936;SDS011;9163;48.818;8.976;2022-08-19T00:16:30;18.80;;;14.83;;
15936;SDS011;9163;48.818;8.976;2022-08-19T00:18:57;20.53;;;15.77;;
15936;SDS011;9163;48.818;8.976;2022-08-19T00:21:25;19.60;;;15.03;;
15936;SDS011;9163;48.818;8.976;2022-08-19T00:23:53;18.23;;;14.47;;
15936;SDS011;9163;48.818;8.976;2022-08-19T00:26:23;20.77;;;15.67;;
15936;SDS011;9163;48.818;8.976;2022-08-19T00:28:52;18.03;;;14.53;;
15936;SDS011;9163;48.818;8.976;2022-08-19T00:31:20;19.17;;;15.23;;
15936;SDS011;9163;48.818;8.976;2022-08-19T00:33:47;19.37;;;16.07;;
15936;SDS011;9163;48.818;8.976;2022-08-19T00:36:16;20.67;;;16.27;;
15936;SDS011;9163;48.818;8.976;2022-08-19T00:38:44;19.73;;;16.07;;
15936;SDS011;9163;48.818;8.976;2022-08-19T00:41:12;22.23;;;15.83;;
15936;SDS011;9163;48.818;8.976;2022-08-19T00:43:40;19.43;;;15.80;;
15936;SDS011;9163;48.818;8.976;2022-08-19T00:46:09;20.57;;;16.23;;
15936;SDS011;9163;48.818;8.976;2022-08-19T00:48:36;19.30;;;16.53;;
15936;SDS011;9163;48.818;8.976;2022-08-19T00:51:04;21.40;;;15.83;;
15936;SDS011;9163;48.818;8.976;2022-08-19T00:53:32;20.97;;;16.30;;
15936;SDS011;9163;48.818;8.976;2022-08-19T00:56:01;19.87;;;15.97;;
15936;SDS011;9163;48.818;8.976;2022-08-19T00:58:32;21.97;;;16.50;;
15936;SDS011;9163;48.818;8.976;2022-08-19T01:01:01;22.67;;;16.80;;
15936;SDS011;9163;48.818;8.976;2022-08-19T01:03:30;21.57;;;16.17;;
15936;SDS011;9163;48.818;8.976;2022-08-19T01:05:57;21.13;;;16.90;;
15936;SDS011;9163;48.818;8.976;2022-08-19T01:08:25;22.63;;;17.17;;
15936;SDS011;9163;48.818;8.976;2022-08-19T01:10:53;21.93;;;17.63;;
15936;SDS011;9163;48.818;8.976;2022-08-19T01:13:23;22.57;;;17.07;;
15936;SDS011;9163;48.818;8.976;2022-08-19T01:15:55;22.70;;;17.90;;
15936;SDS011;9163;48.818;8.976;2022-08-19T01:18:25;23.10;;;17.33;;
15936;SDS011;9163;48.818;8.976;2022-08-19T01:20:56;21.77;;;17.93;;
15936;SDS011;9163;48.818;8.976;2022-08-19T01:23:28;24.30;;;17.87;;
15936;SDS011;9163;48.818;8.976;2022-08-19T01:26:09;22.73;;;18.00;;
15936;SDS011;9163;48.818;8.976;2022-08-19T01:28:38;25.90;;;18.47;;
15936;SDS011;9163;48.818;8.976;2022-08-19T01:31:07;22.53;;;17.57;;
15936;SDS011;9163;48.818;8.976;2022-08-19T01:33:36;23.67;;;18.57;;
15936;SDS011;9163;48.818;8.976;2022-08-19T01:36:05;23.27;;;17.37;;
15936;SDS011;9163;48.818;8.976;2022-08-19T01:38:37;24.97;;;18.83;;
15936;SDS011;9163;48.818;8.976;2022-08-19T01:41:06;24.70;;;18.37;;
15936;SDS011;9163;48.818;8.976;2022-08-19T01:43:33;24.63;;;19.30;;
15936;SDS011;9163;48.818;8.976;2022-08-19T01:46:02;26.03;;;18.63;;
15936;SDS011;9163;48.818;8.976;2022-08-19T01:48:32;25.00;;;19.47;;
15936;SDS011;9163;48.818;8.976;2022-08-19T01:51:00;22.90;;;18.40;;
15936;SDS011;9163;48.818;8.976;2022-08-19T01:53:28;23.73;;;18.33;;
15936;SDS011;9163;48.818;8.976;2022-08-19T01:55:57;25.70;;;18.60;;
15936;SDS011;9163;48.818;8.976;2022-08-19T01:58:30;25.57;;;19.23;;
15936;SDS011;9163;48.818;8.976;2022-08-19T02:01:01;24.37;;;18.67;;
15936;SDS011;9163;48.818;8.976;2022-08-19T02:03:29;23.07;;;18.63;;
15936;SDS011;9163;48.818;8.976;2022-08-19T02:05:56;23.93;;;18.30;;
15936;SDS011;9163;48.818;8.976;2022-08-19T02:08:25;26.20;;;19.70;;
15936;SDS011;9163;48.818;8.976;2022-08-19T02:10:53;23.53;;;18.77;;
15936;SDS011;9163;48.818;8.976;2022-08-19T02:13:22;25.03;;;19.27;;
15936;SDS011;9163;48.818;8.976;2022-08-19T02:15:49;24.53;;;19.07;;
15936;SDS011;9163;48.818;8.976;2022-08-19T02:18:17;26.47;;;20.27;;
15936;SDS011;9163;48.818;8.976;2022-08-19T02:20:44;24.50;;;20.10;;
15936;SDS011;9163;48.818;8.976;2022-08-19T02:23:13;25.57;;;20.20;;
15936;SDS011;9163;48.818;8.976;2022-08-19T02:25:42;24.43;;;19.43;;
15936;SDS011;9163;48.818;8.976;2022-08-19T02:28:10;28.07;;;19.90;;
15936;SDS011;9163;48.818;8.976;2022-08-19T02:30:39;25.80;;;20.77;;
15936;SDS011;9163;48.818;8.976;2022-08-19T02:33:07;28.33;;;21.43;;
15936;SDS011;9163;48.818;8.976;2022-08-19T02:35:35;25.57;;;20.37;;
15936;SDS011;9163;48.818;8.976;2022-08-19T02:38:02;25.60;;;20.63;;
15936;SDS011;9163;48.818;8.976;2022-08-19T02:40:48;27.30;;;20.30;;
15936;SDS011;9163;48.818;8.976;2022-08-19T02:43:17;28.87;;;20.87;;
15936;SDS011;9163;48.818;8.976;2022-08-19T02:45:46;26.90;;;21.30;;
15936;SDS011;9163;48.818;8.976;2022-08-19T02:48:15;29.57;;;22.20;;
15936;SDS011;9163;48.818;8.976;2022-08-19T02:50:43;30.10;;;21.60;;
15936;SDS011;9163;48.818;8.976;2022-08-19T02:53:11;27.90;;;23.07;;
15936;SDS011;9163;48.818;8.976;2022-08-19T02:55:42;30.33;;;21.97;;
15936;SDS011;9163;48.818;8.976;2022-08-19T02:58:12;29.10;;;22.97;;
15936;SDS011;9163;48.818;8.976;2022-08-19T03:00:41;29.47;;;21.73;;
15936;SDS011;9163;48.818;8.976;2022-08-19T03:03:11;30.37;;;23.00;;
15936;SDS011;9163;48.818;8.976;2022-08-19T03:05:39;31.50;;;23.43;;
15936;SDS011;9163;48.818;8.976;2022-08-19T03:08:07;29.80;;;23.00;;
15936;SDS011;9163;48.818;8.976;2022-08-19T03:10:41;26.73;;;21.70;;
15936;SDS011;9163;48.818;8.976;2022-08-19T03:13:11;28.07;;;23.57;;
15936;SDS011;9163;48.818;8.976;2022-08-19T03:15:40;30.37;;;22.67;;
15936;SDS011;9163;48.818;8.976;2022-08-19T03:18:08;29.77;;;23.37;;
15936;SDS011;9163;48.818;8.976;2022-08-19T03:20:41;31.23;;;23.30;;
15936;SDS011;9163;48.818;8.976;2022-08-19T03:23:09;28.40;;;23.27;;
15936;SDS011;9163;48.818;8.976;2022-08-19T03:25:38;32.47;;;24.37;;
15936;SDS011;9163;48.818;8.976;2022-08-19T03:28:08;31.23;;;23.97;;
15936;SDS011;9163;48.818;8.976;2022-08-19T03:30:37;30.13;;;23.80;;
15936;SDS011;9163;48.818;8.976;2022-08-19T03:33:06;30.10;;;23.77;;
15936;SDS011;9163;48.818;8.976;2022-08-19T03:35:34;29.10;;;22.77;;
15936;SDS011;9163;48.818;8.976;2022-08-19T03:38:03;29.13;;;23.03;;
15936;SDS011;9163;48.818;8.976;2022-08-19T03:40:31;30.73;;;23.77;;
15936;SDS011;9163;48.818;8.976;2022-08-19T03:43:00;31.30;;;24.70;;
15936;SDS011;9163;48.818;8.976;2022-08-19T03:45:27;30.73;;;23.57;;
15936;SDS011;9163;48.818;8.976;2022-08-19T03:47:55;29.20;;;24.20;;
15936;SDS011;9163;48.818;8.976;2022-08-19T03:50:22;31.63;;;24.50;;
15936;SDS011;9163;48.818;8.976;2022-08-19T03:52:50;32.43;;;24.80;;
15936;SDS011;9163;48.818;8.976;2022-08-19T03:55:19;29.37;;;23.97;;
15936;SDS011;9163;48.818;8.976;2022-08-19T03:57:46;29.37;;;23.53;;
15936;SDS011;9163;48.818;8.976;2022-08-19T04:00:14;34.30;;;25.27;;
15936;SDS011;9163;48.818;8.976;2022-08-19T04:02:42;29.70;;;23.77;;
15936;SDS011;9163;48.818;8.976;2022-08-19T04:05:09;30.60;;;24.33;;
15936;SDS011;9163;48.818;8.976;2022-08-19T04:07:38;31.30;;;24.30;;
15936;SDS011;9163;48.818;8.976;2022-08-19T04:10:05;29.27;;;23.70;;
15936;SDS011;9163;48.818;8.976;2022-08-19T04:12:34;32.27;;;25.17;;
15936;SDS011;9163;48.818;8.976;2022-08-19T04:15:02;30.40;;;23.27;;
15936;SDS011;9163;48.818;8.976;2022-08-19T04:17:30;35.80;;;25.90;;
15936;SDS011;9163;48.818;8.976;2022-08-19T04:19:57;31.77;;;26.03;;
15936;SDS011;9163;48.818;8.976;2022-08-19T04:22:24;33.13;;;25.20;;
15936;SDS011;9163;48.818;8.976;2022-08-19T04:24:52;33.47;;;26.00;;
15936;SDS011;9163;48.818;8.976;2022-08-19T04:27:19;35.80;;;26.17;;
15936;SDS011;9163;48.818;8.976;2022-08-19T04:29:47;33.63;;;26.37;;
15936;SDS011;9163;48.818;8.976;2022-08-19T04:32:15;32.83;;;25.47;;
15936;SDS011;9163;48.818;8.976;2022-08-19T04:34:42;31.77;;;26.07;;
15936;SDS011;9163;48.818;8.976;2022-08-19T04:37:09;32.37;;;25.93;;
15936;SDS011;9163;48.818;8.976;2022-08-19T04:39:37;32.63;;;24.93;;
15936;SDS011;9163;48.818;8.976;2022-08-19T04:42:22;33.53;;;26.33;;
15936;SDS011;9163;48.818;8.976;2022-08-19T04:45:07;32.23;;;25.77;;
15936;SDS011;9163;48.818;8.976;2022-08-19T04:47:36;33.67;;;24.97;;
15936;SDS011;9163;48.818;8.976;2022-08-19T04:50:05;32.83;;;26.20;;
15936;SDS011;9163;48.818;8.976;2022-08-19T04:52:33;34.47;;;26.47;;
15936;SDS011;9163;48.818;8.976;2022-08-19T04:55:00;32.63;;;25.80;;
15936;SDS011;9163;48.818;8.976;2022-08-19T04:57:27;36.03;;;27.23;;
15936;SDS011;9163;48.818;8.976;2022-08-19T04:59:55;33.87;;;25.27;;
15936;SDS011;9163;48.818;8.976;2022-08-19T05:02:24;34.90;;;25.10;;
15936;SDS011;9163;48.818;8.976;2022-08-19T05:04:55;31.40;;;25.13;;
15936;SDS011;9163;48.818;8.976;2022-08-19T05:07:24;33.17;;;25.37;;
15936;SDS011;9163;48.818;8.976;2022-08-19T05:09:51;33.27;;;26.40;;
15936;SDS011;9163;48.818;8.976;2022-08-19T05:12:18;32.97;;;25.00;;
15936;SDS011;9163;48.818;8.976;2022-08-19T05:14:46;30.73;;;24.73;;
15936;SDS011;9163;48.818;8.976;2022-08-19T05:17:13;31.13;;;23.37;;
15936;SDS011;9163;48.818;8.976;2022-08-19T05:19:41;35.40;;;25.07;;
15936;SDS011;9163;48.818;8.976;2022-08-19T05:22:26;29.60;;;24.70;;
15936;SDS011;9163;48.818;8.976;2022-08-19T05:25:04;31.70;;;25.10;;
15936;SDS011;9163;48.818;8.976;2022-08-19T05:27:33;29.07;;;24.00;;
15936;SDS011;9163;48.818;8.976;2022-08-19T05:30:01;32.50;;;23.20;;
15936;SDS011;9163;48.818;8.976;2022-08-19T05:32:29;31.40;;;24.07;;
15936;SDS011;9163;48.818;8.976;2022-08-19T05:34:58;28.50;;;23.87;;
15936;SDS011;9163;48.818;8.976;2022-08-19T05:37:25;29.30;;;23.63;;
15936;SDS011;9163;48.818;8.976;2022-08-19T05:39:53;31.33;;;24.50;;
15936;SDS011;9163;48.818;8.976;2022-08-19T05:42:21;30.73;;;24.13;;
15936;SDS011;9163;48.818;8.976;2022-08-19T05:44:49;34.13;;;23.03;;
15936;SDS011;9163;48.818;8.976;2022-08-19T05:47:17;32.37;;;24.63;;
15936;SDS011;9163;48.818;8.976;2022-08-19T05:49:45;31.07;;;24.47;;
15936;SDS011;9163;48.818;8.976;2022-08-19T05:52:14;31.67;;;24.30;;
15936;SDS011;9163;48.818;8.976;2022-08-19T05:54:42;31.13;;;24.53;;
15936;SDS011;9163;48.818;8.976;2022-08-19T05:57:13;29.47;;;23.17;;
15936;SDS011;9163;48.818;8.976;2022-08-19T05:59:41;31.50;;;23.37;;
15936;SDS011;9163;48.818;8.976;2022-08-19T06:02:09;29.23;;;23.67;;
15936;SDS011;9163;48.818;8.976;2022-08-19T06:04:36;29.30;;;24.50;;
15936;SDS011;9163;48.818;8.976;2022-08-19T06:07:04;30.50;;;24.13;;
15936;SDS011;9163;48.818;8.976;2022-08-19T06:09:33;31.73;;;24.73;;
15936;SDS011;9163;48.818;8.976;2022-08-19T06:12:00;32.10;;;24.67;;
15936;SDS011;9163;48.818;8.976;2022-08-19T06:14:30;29.43;;;23.50;;
15936;SDS011;9163;48.818;8.976;2022-08-19T06:17:00;26.67;;;22.37;;
15936;SDS011;9163;48.818;8.976;2022-08-19T06:19:28;29.57;;;23.40;;
15936;SDS011;9163;48.818;8.976;2022-08-19T06:21:57;61.00;;;35.67;;
15936;SDS011;9163;48.818;8.976;2022-08-19T06:24:25;43.17;;;30.03;;
15936;SDS011;9163;48.818;8.976;2022-08-19T06:26:56;47.07;;;30.20;;
15936;SDS011;9163;48.818;8.976;2022-08-19T06:29:24;39.73;;;28.17;;
15936;SDS011;9163;48.818;8.976;2022-08-19T06:31:54;43.33;;;29.80;;
15936;SDS011;9163;48.818;8.976;2022-08-19T06:34:23;53.77;;;36.20;;
15936;SDS011;9163;48.818;8.976;2022-08-19T06:36:52;48.63;;;31.97;;
15936;SDS011;9163;48.818;8.976;2022-08-19T06:39:21;31.37;;;24.90;;
15936;SDS011;9163;48.818;8.976;2022-08-19T06:41:52;31.83;;;25.13;;
15936;SDS011;9163;48.818;8.976;2022-08-19T06:44:23;28.40;;;23.67;;
15936;SDS011;9163;48.818;8.976;2022-08-19T06:46:52;41.77;;;32.33;;
15936;SDS011;9163;48.818;8.976;2022-08-19T06:49:20;39.43;;;30.43;;
15936;SDS011;9163;48.818;8.976;2022-08-19T06:51:49;32.67;;;26.30;;
15936;SDS011;9163;48.818;8.976;2022-08-19T06:54:17;38.93;;;29.27;;
15936;SDS011;9163;48.818;8.976;2022-08-19T06:56:46;31.97;;;25.27;;
15936;SDS011;9163;48.818;8.976;2022-08-19T06:59:14;29.77;;;23.37;;
15936;SDS011;9163;48.818;8.976;2022-08-19T07:01:45;28.60;;;23.47;;
15936;SDS011;9163;48.818;8.976;2022-08-19T07:04:16;27.53;;;22.57;;
15936;SDS011;9163;48.818;8.976;2022-08-19T07:06:44;26.23;;;20.93;;
15936;SDS011;9163;48.818;8.976;2022-08-19T07:09:14;27.13;;;20.77;;
15936;SDS011;9163;48.818;8.976;2022-08-19T07:11:43;24.10;;;19.67;;
15936;SDS011;9163;48.818;8.976;2022-08-19T07:14:11;24.00;;;19.87;;
15936;SDS011;9163;48.818;8.976;2022-08-19T07:16:39;27.13;;;20.57;;
15936;SDS011;9163;48.818;8.976;2022-08-19T07:19:08;26.97;;;21.10;;
15936;SDS011;9163;48.818;8.976;2022-08-19T07:21:35;25.17;;;20.03;;
15936;SDS011;9163;48.818;8.976;2022-08-19T07:24:03;23.17;;;20.63;;
15936;SDS011;9163;48.818;8.976;2022-08-19T07:26:32;24.47;;;19.43;;
15936;SDS011;9163;48.818;8.976;2022-08-19T07:29:00;26.10;;;21.20;;
15936;SDS011;9163;48.818;8.976;2022-08-19T07:31:27;27.70;;;21.60;;
15936;SDS011;9163;48.818;8.976;2022-08-19T07:33:55;25.20;;;20.67;;
15936;SDS011;9163;48.818;8.976;2022-08-19T07:36:25;23.90;;;20.33;;
15936;SDS011;9163;48.818;8.976;2022-08-19T07:38:58;20.77;;;18.57;;
15936;SDS011;9163;48.818;8.976;2022-08-19T07:41:28;24.87;;;19.33;;
15936;SDS011;9163;48.818;8.976;2022-08-19T07:43:57;25.70;;;20.07;;
15936;SDS011;9163;48.818;8.976;2022-08-19T07:46:29;25.40;;;20.07;;
15936;SDS011;9163;48.818;8.976;2022-08-19T07:48:57;24.03;;;18.70;;
15936;SDS011;9163;48.818;8.976;2022-08-19T07:51:27;23.30;;;18.97;;
15936;SDS011;9163;48.818;8.976;2022-08-19T07:53:55;24.23;;;19.73;;
15936;SDS011;9163;48.818;8.976;2022-08-19T07:56:22;23.93;;;19.47;;
15936;SDS011;9163;48.818;8.976;2022-08-19T07:58:50;24.23;;;19.30;;
15936;SDS011;9163;48.818;8.976;2022-08-19T08:01:19;21.53;;;17.30;;
15936;SDS011;9163;48.818;8.976;2022-08-19T08:03:49;23.57;;;18.23;;
15936;SDS011;9163;48.818;8.976;2022-08-19T08:06:37;24.90;;;16.83;;
15936;SDS011;9163;48.818;8.976;2022-08-19T08:09:23;23.97;;;18.97;;
15936;SDS011;9163;48.818;8.976;2022-08-19T08:11:54;20.90;;;17.60;;
15936;SDS011;9163;48.818;8.976;2022-08-19T08:14:24;21.33;;;19.00;;
15936;SDS011;9163;48.818;8.976;2022-08-19T08:16:53;21.03;;;17.93;;
15936;SDS011;9163;48.818;8.976;2022-08-19T08:19:21;18.57;;;16.17;;
15936;SDS011;9163;48.818;8.976;2022-08-19T08:21:53;20.43;;;17.37;;
15936;SDS011;9163;48.818;8.976;2022-08-19T08:24:21;19.93;;;17.40;;
15936;SDS011;9163;48.818;8.976;2022-08-19T08:26:49;19.33;;;16.73;;
15936;SDS011;9163;48.818;8.976;2022-08-19T08:29:16;21.23;;;17.20;;
15936;SDS011;9163;48.818;8.976;2022-08-19T08:31:45;19.97;;;17.53;;
15936;SDS011;9163;48.818;8.976;2022-08-19T08:34:13;19.67;;;17.53;;
15936;SDS011;9163;48.818;8.976;2022-08-19T08:36:41;19.13;;;16.27;;
15936;SDS011;9163;48.818;8.976;2022-08-19T08:39:13;20.87;;;17.70;;
15936;SDS011;9163;48.818;8.976;2022-08-19T08:41:44;20.87;;;17.30;;
15936;SDS011;9163;48.818;8.976;2022-08-19T08:44:19;18.90;;;16.83;;
15936;SDS011;9163;48.818;8.976;2022-08-19T08:46:50;19.93;;;15.87;;
15936;SDS011;9163;48.818;8.976;2022-08-19T08:49:29;20.33;;;16.80;;
15936;SDS011;9163;48.818;8.976;2022-08-19T08:52:02;22.70;;;17.27;;
15936;SDS011;9163;48.818;8.976;2022-08-19T08:54:35;17.77;;;15.87;;
15936;SDS011;9163;48.818;8.976;2022-08-19T08:57:07;19.57;;;16.20;;
15936;SDS011;9163;48.818;8.976;2022-08-19T08:59:39;20.27;;;17.40;;
15936;SDS011;9163;48.818;8.976;2022-08-19T09:02:09;19.77;;;16.50;;
15936;SDS011;9163;48.818;8.976;2022-08-19T09:04:36;19.10;;;17.03;;
15936;SDS011;9163;48.818;8.976;2022-08-19T09:07:10;20.57;;;18.10;;
15936;SDS011;9163;48.818;8.976;2022-08-19T09:09:50;22.13;;;17.30;;
15936;SDS011;9163;48.818;8.976;2022-08-19T09:12:21;21.87;;;17.27;;
15936;SDS011;9163;48.818;8.976;2022-08-19T09:15:00;21.00;;;17.07;;
15936;SDS011;9163;48.818;8.976;2022-08-19T09:17:31;18.10;;;14.87;;
15936;SDS011;9163;48.818;8.976;2022-08-19T09:20:02;17.43;;;15.13;;
15936;SDS011;9163;48.818;8.976;2022-08-19T09:22:34;19.63;;;16.47;;
15936;SDS011;9163;48.818;8.976;2022-08-19T09:25:04;18.97;;;16.27;;
15936;SDS011;9163;48.818;8.976;2022-08-19T09:27:31;19.87;;;16.20;;
15936;SDS011;9163;48.818;8.976;2022-08-19T09:29:59;19.70;;;16.50;;
15936;SDS011;9163;48.818;8.976;2022-08-19T09:32:26;17.20;;;15.40;;
15936;SDS011;9163;48.818;8.976;2022-08-19T09:34:53;20.40;;;15.67;;
15936;SDS011;9163;48.818;8.976;2022-08-19T09:37:23;19.40;;;16.13;;
15936;SDS011;9163;48.818;8.976;2022-08-19T09:39:51;17.43;;;15.53;;
15936;SDS011;9163;48.818;8.976;2022-08-19T09:42:19;19.70;;;16.30;;
15936;SDS011;9163;48.818;8.976;2022-08-19T09:44:47;17.17;;;14.50;;
15936;SDS011;9163;48.818;8.976;2022-08-19T09:47:14;18.37;;;13.93;;
15936;SDS011;9163;48.818;8.976;2022-08-19T09:49:41;22.27;;;15.93;;
15936;SDS011;9163;48.818;8.976;2022-08-19T09:52:09;17.30;;;13.90;;
15936;SDS011;9163;48.818;8.976;2022-08-19T09:54:37;16.13;;;13.57;;
15936;SDS011;9163;48.818;8.976;2022-08-19T09:57:04;16.60;;;13.13;;
15936;SDS011;9163;48.818;8.976;2022-08-19T09:59:33;17.87;;;12.70;;
15936;SDS011;9163;48.818;8.976;2022-08-19T10:02:01;17.20;;;13.90;;
15936;SDS011;9163;48.818;8.976;2022-08-19T10:04:29;17.00;;;13.40;;
15936;SDS011;9163;48.818;8.976;2022-08-19T10:07:10;18.07;;;13.03;;
15936;SDS011;9163;48.818;8.976;2022-08-19T10:09:38;16.57;;;12.83;;
15936;SDS011;9163;48.818;8.976;2022-08-19T10:12:07;13.97;;;11.93;;
15936;SDS011;9163;48.818;8.976;2022-08-19T10:14:36;16.17;;;12.00;;
15936;SDS011;9163;48.818;8.976;2022-08-19T10:17:03;14.43;;;11.53;;
15936;SDS011;9163;48.818;8.976;2022-08-19T10:19:31;14.73;;;11.07;;
15936;SDS011;9163;48.818;8.976;2022-08-19T10:22:04;14.57;;;11.43;;
15936;SDS011;9163;48.818;8.976;2022-08-19T10:24:33;14.93;;;11.07;;
15936;SDS011;9163;48.818;8.976;2022-08-19T10:27:01;12.10;;;10.10;;
15936;SDS011;9163;48.818;8.976;2022-08-19T10:29:31;12.27;;;10.60;;
15936;SDS011;9163;48.818;8.976;2022-08-19T10:32:01;11.67;;;9.97;;
15936;SDS011;9163;48.818;8.976;2022-08-19T10:34:31;12.30;;;10.80;;
15936;SDS011;9163;48.818;8.976;2022-08-19T10:36:58;12.20;;;9.80;;
15936;SDS011;9163;48.818;8.976;2022-08-19T10:39:27;12.97;;;10.37;;
15936;SDS011;9163;48.818;8.976;2022-08-19T10:41:55;11.37;;;9.77;;
15936;SDS011;9163;48.818;8.976;2022-08-19T10:44:22;11.87;;;10.23;;
15936;SDS011;9163;48.818;8.976;2022-08-19T10:46:50;11.63;;;9.07;;
15936;SDS011;9163;48.818;8.976;2022-08-19T10:49:19;10.33;;;9.30;;
15936;SDS011;9163;48.818;8.976;2022-08-19T10:51:46;12.17;;;9.40;;
15936;SDS011;9163;48.818;8.976;2022-08-19T10:54:31;13.43;;;10.53;;
15936;SDS011;9163;48.818;8.976;2022-08-19T10:57:17;13.37;;;9.70;;
15936;SDS011;9163;48.818;8.976;2022-08-19T10:59:44;11.10;;;9.40;;
15936;SDS011;9163;48.818;8.976;2022-08-19T11:02:12;12.73;;;10.00;;
15936;SDS011;9163;48.818;8.976;2022-08-19T11:04:41;12.68;;;10.63;;
15936;SDS011;9163;48.818;8.976;2022-08-19T11:07:08;13.60;;;10.02;;
15936;SDS011;9163;48.818;8.976;2022-08-19T11:09:38;12.43;;;10.87;;
15936;SDS011;9163;48.818;8.976;2022-08-19T11:12:07;10.80;;;9.70;;
15936;SDS011;9163;48.818;8.976;2022-08-19T11:14:35;11.13;;;9.70;;
15936;SDS011;9163;48.818;8.976;2022-08-19T11:17:03;10.15;;;8.65;;
15936;SDS011;9163;48.818;8.976;2022-08-19T11:19:32;10.80;;;8.20;;
15936;SDS011;9163;48.818;8.976;2022-08-19T11:22:00;8.80;;;7.90;;
15936;SDS011;9163;48.818;8.976;2022-08-19T11:24:29;9.70;;;7.72;;
15936;SDS011;9163;48.818;8.976;2022-08-19T11:27:00;10.32;;;8.10;;
15936;SDS011;9163;48.818;8.976;2022-08-19T11:29:30;11.35;;;7.93;;
15936;SDS011;9163;48.818;8.976;2022-08-19T11:31:58;7.82;;;7.03;;
15936;SDS011;9163;48.818;8.976;2022-08-19T11:34:27;9.20;;;7.13;;
15936;SDS011;9163;48.818;8.976;2022-08-19T11:36:55;7.53;;;6.70;;
15936;SDS011;9163;48.818;8.976;2022-08-19T11:39:25;10.63;;;7.10;;
15936;SDS011;9163;48.818;8.976;2022-08-19T11:41:54;7.43;;;6.70;;
15936;SDS011;9163;48.818;8.976;2022-08-19T11:44:21;8.70;;;6.67;;
15936;SDS011;9163;48.818;8.976;2022-08-19T11:46:48;8.27;;;6.87;;
15936;SDS011;9163;48.818;8.976;2022-08-19T11:49:17;9.70;;;8.70;;
15936;SDS011;9163;48.818;8.976;2022-08-19T11:51:47;6.67;;;6.07;;
15936;SDS011;9163;48.818;8.976;2022-08-19T11:54:16;7.03;;;6.17;;
15936;SDS011;9163;48.818;8.976;2022-08-19T11:56:45;6.90;;;6.20;;
15936;SDS011;9163;48.818;8.976;2022-08-19T11:59:14;8.30;;;6.28;;
15936;SDS011;9163;48.818;8.976;2022-08-19T12:01:41;6.70;;;6.10;;
15936;SDS011;9163;48.818;8.976;2022-08-19T12:04:09;7.47;;;6.77;;
15936;SDS011;9163;48.818;8.976;2022-08-19T12:06:37;8.80;;;6.57;;
15936;SDS011;9163;48.818;8.976;2022-08-19T12:09:07;5.90;;;5.30;;
15936;SDS011;9163;48.818;8.976;2022-08-19T12:11:35;6.65;;;6.00;;
15936;SDS011;9163;48.818;8.976;2022-08-19T12:14:04;8.67;;;6.20;;
15936;SDS011;9163;48.818;8.976;2022-08-19T12:16:32;7.05;;;5.95;;
15936;SDS011;9163;48.818;8.976;2022-08-19T12:19:00;6.57;;;5.70;;
15936;SDS011;9163;48.818;8.976;2022-08-19T12:21:30;6.60;;;5.85;;
15936;SDS011;9163;48.818;8.976;2022-08-19T12:23:59;6.28;;;5.63;;
15936;SDS011;9163;48.818;8.976;2022-08-19T12:26:28;6.53;;;5.82;;
15936;SDS011;9163;48.818;8.976;2022-08-19T12:28:56;6.22;;;5.60;;
15936;SDS011;9163;48.818;8.976;2022-08-19T12:31:26;7.75;;;5.22;;
15936;SDS011;9163;48.818;8.976;2022-08-19T12:33:54;5.90;;;5.30;;
15936;SDS011;9163;48.818;8.976;2022-08-19T12:36:21;9.50;;;6.72;;
15936;SDS011;9163;48.818;8.976;2022-08-19T12:38:48;8.65;;;7.05;;
15936;SDS011;9163;48.818;8.976;2022-08-19T12:41:16;7.57;;;6.88;;
15936;SDS011;9163;48.818;8.976;2022-08-19T12:43:47;7.50;;;6.78;;
15936;SDS011;9163;48.818;8.976;2022-08-19T12:46:15;6.20;;;5.70;;
15936;SDS011;9163;48.818;8.976;2022-08-19T12:48:45;7.65;;;6.68;;
15936;SDS011;9163;48.818;8.976;2022-08-19T12:51:14;7.00;;;6.32;;
15936;SDS011;9163;48.818;8.976;2022-08-19T12:53:43;7.40;;;6.30;;
15936;SDS011;9163;48.818;8.976;2022-08-19T12:56:11;7.03;;;6.20;;
15936;SDS011;9163;48.818;8.976;2022-08-19T12:58:40;6.68;;;6.07;;
15936;SDS011;9163;48.818;8.976;2022-08-19T13:01:08;7.30;;;6.15;;
15936;SDS011;9163;48.818;8.976;2022-08-19T13:03:37;5.65;;;5.15;;
15936;SDS011;9163;48.818;8.976;2022-08-19T13:06:06;7.03;;;5.68;;
15936;SDS011;9163;48.818;8.976;2022-08-19T13:08:34;12.75;;;9.95;;
15936;SDS011;9163;48.818;8.976;2022-08-19T13:11:09;7.57;;;5.75;;
15936;SDS011;9163;48.818;8.976;2022-08-19T13:13:39;7.70;;;6.40;;
15936;SDS011;9163;48.818;8.976;2022-08-19T13:16:07;6.25;;;5.40;;
15936;SDS011;9163;48.818;8.976;2022-08-19T13:18:36;6.90;;;5.80;;
15936;SDS011;9163;48.818;8.976;2022-08-19T13:21:07;6.80;;;5.70;;
15936;SDS011;9163;48.818;8.976;2022-08-19T13:23:36;6.78;;;6.13;;
15936;SDS011;9163;48.818;8.976;2022-08-19T13:26:04;6.30;;;5.68;;
15936;SDS011;9163;48.818;8.976;2022-08-19T13:28:33;9.10;;;6.75;;
15936;SDS011;9163;48.818;8.976;2022-08-19T13:31:19;7.07;;;6.40;;
15936;SDS011;9163;48.818;8.976;2022-08-19T13:34:06;7.95;;;6.22;;
15936;SDS011;9163;48.818;8.976;2022-08-19T13:36:36;8.30;;;6.57;;
15936;SDS011;9163;48.818;8.976;2022-08-19T13:39:04;6.63;;;6.03;;
15936;SDS011;9163;48.818;8.976;2022-08-19T13:41:33;7.72;;;7.03;;
15936;SDS011;9163;48.818;8.976;2022-08-19T13:44:00;8.77;;;8.02;;
15936;SDS011;9163;48.818;8.976;2022-08-19T13:46:28;8.20;;;7.40;;
15936;SDS011;9163;48.818;8.976;2022-08-19T13:48:56;7.35;;;6.65;;
15936;SDS011;9163;48.818;8.976;2022-08-19T13:51:23;6.80;;;6.20;;
15936;SDS011;9163;48.818;8.976;2022-08-19T13:53:52;7.50;;;6.40;;
15936;SDS011;9163;48.818;8.976;2022-08-19T13:56:20;6.70;;;6.10;;
15936;SDS011;9163;48.818;8.976;2022-08-19T13:58:47;6.95;;;6.30;;
15936;SDS011;9163;48.818;8.976;2022-08-19T14:01:18;7.38;;;6.68;;
15936;SDS011;9163;48.818;8.976;2022-08-19T14:03:46;8.60;;;7.90;;
15936;SDS011;9163;48.818;8.976;2022-08-19T14:06:13;8.23;;;7.45;;
15936;SDS011;9163;48.818;8.976;2022-08-19T14:08:40;7.65;;;7.05;;
15936;SDS011;9163;48.818;8.976;2022-08-19T14:11:09;9.07;;;8.15;;
15936;SDS011;9163;48.818;8.976;2022-08-19T14:13:36;8.15;;;7.35;;
15936;SDS011;9163;48.818;8.976;2022-08-19T14:16:06;7.47;;;6.88;;
15936;SDS011;9163;48.818;8.976;2022-08-19T14:18:35;9.45;;;7.60;;
15936;SDS011;9163;48.818;8.976;2022-08-19T14:21:03;8.50;;;7.80;;
15936;SDS011;9163;48.818;8.976;2022-08-19T14:23:30;8.50;;;7.75;;
15936;SDS011;9163;48.818;8.976;2022-08-19T14:26:03;7.50;;;6.80;;
15936;SDS011;9163;48.818;8.976;2022-08-19T14:28:33;7.22;;;6.53;;
15936;SDS011;9163;48.818;8.976;2022-08-19T14:31:00;7.13;;;6.47;;
15936;SDS011;9163;48.818;8.976;2022-08-19T14:33:28;7.88;;;7.07;;
15936;SDS011;9163;48.818;8.976;2022-08-19T14:35:55;7.18;;;6.45;;
15936;SDS011;9163;48.818;8.976;2022-08-19T14:38:22;7.50;;;6.82;;
15936;SDS011;9163;48.818;8.976;2022-08-19T14:40:50;7.93;;;7.07;;
15936;SDS011;9163;48.818;8.976;2022-08-19T14:43:17;7.93;;;7.22;;
15936;SDS011;9163;48.818;8.976;2022-08-19T14:45:46;7.53;;;6.93;;
15936;SDS011;9163;48.818;8.976;2022-08-19T14:48:13;7.80;;;7.20;;
15936;SDS011;9163;48.818;8.976;2022-08-19T14:50:40;8.52;;;7.68;;
15936;SDS011;9163;48.818;8.976;2022-08-19T14:53:08;7.90;;;7.05;;